sensor_id;sensor_type;location;lat;lon;timestamp;P1;durP1;ratioP1;P2;durP2;ratioP2
50689;SDS011;54375;48.298;11.238;2023-04-09T00:10:16;31.00;;;17.42;;
50689;SDS011;54375;48.298;11.238;2023-04-09T00:25:19;28.90;;;17.77;;
50689;SDS011;54375;48.298;11.238;2023-04-09T00:40:21;28.23;;;17.95;;
50689;SDS011;54375;48.298;11.238;2023-04-09T00:55:23;24.42;;;14.50;;
50689;SDS011;54375;48.298;11.238;2023-04-09T01:10:27;31.45;;;19.25;;
50689;SDS011;54375;48.298;11.238;2023-04-09T01:25:39;27.65;;;17.73;;
50689;SDS011;54375;48.298;11.238;2023-04-09T01:40:48;23.90;;;14.93;;
50689;SDS011;54375;48.298;11.238;2023-04-09T01:55:51;23.05;;;15.27;;
50689;SDS011;54375;48.298;11.238;2023-04-09T02:10:56;34.92;;;20.67;;
50689;SDS011;54375;48.298;11.238;2023-04-09T02:26:00;28.02;;;17.08;;
50689;SDS011;54375;48.298;11.238;2023-04-09T02:41:03;26.15;;;15.40;;
50689;SDS011;54375;48.298;11.238;2023-04-09T02:56:05;23.55;;;14.70;;
50689;SDS011;54375;48.298;11.238;2023-04-09T03:11:08;27.85;;;18.80;;
50689;SDS011;54375;48.298;11.238;2023-04-09T03:26:10;27.08;;;18.23;;
50689;SDS011;54375;48.298;11.238;2023-04-09T03:41:12;29.30;;;16.58;;
50689;SDS011;54375;48.298;11.238;2023-04-09T03:56:15;26.15;;;17.08;;
50689;SDS011;54375;48.298;11.238;2023-04-09T04:11:17;37.63;;;22.45;;
50689;SDS011;54375;48.298;11.238;2023-04-09T04:26:20;53.67;;;31.98;;
50689;SDS011;54375;48.298;11.238;2023-04-09T04:41:23;50.58;;;29.05;;
50689;SDS011;54375;48.298;11.238;2023-04-09T04:56:25;41.03;;;25.23;;
50689;SDS011;54375;48.298;11.238;2023-04-09T05:11:27;47.40;;;28.15;;
50689;SDS011;54375;48.298;11.238;2023-04-09T05:26:30;63.15;;;31.20;;
50689;SDS011;54375;48.298;11.238;2023-04-09T05:41:32;73.07;;;31.60;;
50689;SDS011;54375;48.298;11.238;2023-04-09T05:56:34;58.22;;;30.23;;
50689;SDS011;54375;48.298;11.238;2023-04-09T06:11:36;56.58;;;29.92;;
50689;SDS011;54375;48.298;11.238;2023-04-09T06:26:38;59.58;;;28.17;;
50689;SDS011;54375;48.298;11.238;2023-04-09T06:41:41;44.05;;;25.35;;
50689;SDS011;54375;48.298;11.238;2023-04-09T06:56:43;34.00;;;21.55;;
50689;SDS011;54375;48.298;11.238;2023-04-09T07:11:45;26.17;;;17.35;;
50689;SDS011;54375;48.298;11.238;2023-04-09T07:26:47;23.23;;;16.33;;
50689;SDS011;54375;48.298;11.238;2023-04-09T07:41:50;24.02;;;15.88;;
50689;SDS011;54375;48.298;11.238;2023-04-09T07:56:52;20.27;;;13.93;;
50689;SDS011;54375;48.298;11.238;2023-04-09T08:11:55;18.45;;;13.02;;
50689;SDS011;54375;48.298;11.238;2023-04-09T08:26:58;17.33;;;12.23;;
50689;SDS011;54375;48.298;11.238;2023-04-09T08:42:00;17.13;;;11.95;;
50689;SDS011;54375;48.298;11.238;2023-04-09T08:57:04;15.93;;;11.52;;
50689;SDS011;54375;48.298;11.238;2023-04-09T09:12:07;16.70;;;12.65;;
50689;SDS011;54375;48.298;11.238;2023-04-09T09:27:09;17.48;;;12.80;;
50689;SDS011;54375;48.298;11.238;2023-04-09T09:42:12;20.63;;;14.32;;
50689;SDS011;54375;48.298;11.238;2023-04-09T09:57:14;17.73;;;12.98;;
50689;SDS011;54375;48.298;11.238;2023-04-09T10:12:20;16.85;;;11.95;;
50689;SDS011;54375;48.298;11.238;2023-04-09T10:27:24;19.48;;;13.27;;
50689;SDS011;54375;48.298;11.238;2023-04-09T10:42:29;18.73;;;12.98;;
50689;SDS011;54375;48.298;11.238;2023-04-09T10:57:35;21.00;;;13.95;;
50689;SDS011;54375;48.298;11.238;2023-04-09T11:12:37;16.50;;;12.07;;
50689;SDS011;54375;48.298;11.238;2023-04-09T11:27:43;15.45;;;11.27;;
50689;SDS011;54375;48.298;11.238;2023-04-09T11:42:45;18.70;;;13.75;;
50689;SDS011;54375;48.298;11.238;2023-04-09T11:57:51;18.85;;;14.00;;
50689;SDS011;54375;48.298;11.238;2023-04-09T12:12:54;18.73;;;13.18;;
50689;SDS011;54375;48.298;11.238;2023-04-09T12:28:01;18.83;;;13.20;;
50689;SDS011;54375;48.298;11.238;2023-04-09T12:43:04;17.88;;;13.40;;
50689;SDS011;54375;48.298;11.238;2023-04-09T12:58:06;41.13;;;27.10;;
50689;SDS011;54375;48.298;11.238;2023-04-09T13:13:08;18.08;;;13.13;;
50689;SDS011;54375;48.298;11.238;2023-04-09T13:28:10;20.02;;;13.50;;
50689;SDS011;54375;48.298;11.238;2023-04-09T13:43:13;15.25;;;10.95;;
50689;SDS011;54375;48.298;11.238;2023-04-09T13:58:15;15.55;;;11.45;;
50689;SDS011;54375;48.298;11.238;2023-04-09T14:13:17;17.65;;;12.40;;
50689;SDS011;54375;48.298;11.238;2023-04-09T14:28:20;13.73;;;9.98;;
50689;SDS011;54375;48.298;11.238;2023-04-09T14:43:22;14.77;;;11.57;;
50689;SDS011;54375;48.298;11.238;2023-04-09T14:58:24;15.38;;;10.77;;
50689;SDS011;54375;48.298;11.238;2023-04-09T15:13:26;14.65;;;10.27;;
50689;SDS011;54375;48.298;11.238;2023-04-09T15:28:28;13.52;;;9.90;;
50689;SDS011;54375;48.298;11.238;2023-04-09T15:43:30;9.98;;;7.60;;
50689;SDS011;54375;48.298;11.238;2023-04-09T15:58:32;10.68;;;7.78;;
50689;SDS011;54375;48.298;11.238;2023-04-09T16:13:34;9.57;;;7.32;;
50689;SDS011;54375;48.298;11.238;2023-04-09T16:28:37;12.70;;;9.48;;
50689;SDS011;54375;48.298;11.238;2023-04-09T16:43:39;12.20;;;9.10;;
50689;SDS011;54375;48.298;11.238;2023-04-09T16:58:41;14.57;;;10.02;;
50689;SDS011;54375;48.298;11.238;2023-04-09T17:13:44;12.48;;;8.75;;
50689;SDS011;54375;48.298;11.238;2023-04-09T17:28:46;13.35;;;9.50;;
50689;SDS011;54375;48.298;11.238;2023-04-09T17:43:49;17.85;;;11.15;;
50689;SDS011;54375;48.298;11.238;2023-04-09T17:58:51;19.25;;;13.20;;
50689;SDS011;54375;48.298;11.238;2023-04-09T18:13:53;13.68;;;10.27;;
50689;SDS011;54375;48.298;11.238;2023-04-09T18:28:55;13.98;;;9.75;;
50689;SDS011;54375;48.298;11.238;2023-04-09T18:43:58;13.45;;;8.57;;
50689;SDS011;54375;48.298;11.238;2023-04-09T18:59:00;13.55;;;8.05;;
50689;SDS011;54375;48.298;11.238;2023-04-09T19:14:02;11.40;;;7.20;;
50689;SDS011;54375;48.298;11.238;2023-04-09T19:29:05;40.63;;;23.67;;
50689;SDS011;54375;48.298;11.238;2023-04-09T19:44:07;17.42;;;10.48;;
50689;SDS011;54375;48.298;11.238;2023-04-09T19:59:09;17.05;;;10.25;;
50689;SDS011;54375;48.298;11.238;2023-04-09T20:14:11;14.98;;;7.72;;
50689;SDS011;54375;48.298;11.238;2023-04-09T20:29:14;14.60;;;8.60;;
50689;SDS011;54375;48.298;11.238;2023-04-09T20:44:16;15.77;;;10.50;;
50689;SDS011;54375;48.298;11.238;2023-04-09T20:59:18;15.95;;;9.20;;
50689;SDS011;54375;48.298;11.238;2023-04-09T21:14:21;18.23;;;10.35;;
50689;SDS011;54375;48.298;11.238;2023-04-09T21:29:23;20.45;;;11.60;;
50689;SDS011;54375;48.298;11.238;2023-04-09T21:44:25;18.83;;;10.45;;
50689;SDS011;54375;48.298;11.238;2023-04-09T21:59:28;20.48;;;11.25;;
50689;SDS011;54375;48.298;11.238;2023-04-09T22:14:30;15.88;;;8.95;;
50689;SDS011;54375;48.298;11.238;2023-04-09T22:29:32;19.90;;;9.70;;
50689;SDS011;54375;48.298;11.238;2023-04-09T22:44:35;16.80;;;8.32;;
50689;SDS011;54375;48.298;11.238;2023-04-09T22:59:37;20.10;;;9.15;;
50689;SDS011;54375;48.298;11.238;2023-04-09T23:14:40;64.55;;;22.52;;
50689;SDS011;54375;48.298;11.238;2023-04-09T23:29:42;36.25;;;13.60;;
50689;SDS011;54375;48.298;11.238;2023-04-09T23:44:44;22.75;;;10.25;;
50689;SDS011;54375;48.298;11.238;2023-04-09T23:59:47;16.00;;;9.05;;
